Flight Track Log - Related Links

Times and Time Zones

All times are in EDT time to prevent confusion due to time zone crossing. See the QLK413D flight status page for this flight to view local times or setup timezone preferences in your user account.

Time Position Orientation Groundspeed Altitude Reporting Facility
EDT Latitude Longitude Course Direction KTS MPH feet Rate Location/Type
Sun 01:11:41 AM -23.6087 148.2373 119° Southeast 23,000  Level Aus ATC (Calculated)
Sun 01:13:32 AM -23.6398 148.2982 127° Southeast 207 238 7,400 -6,290 Descending Aus ATC (RADAR)
Sun 01:14:06 AM -23.6628 148.3312 127° Southeast 225 259 7,800 1,533 Climbing Aus ATC (RADAR)
Sun 01:15:02 AM -23.7015 148.3957 123° Southeast 272 313 9,700 2,200 Climbing Aus ATC (RADAR)
Sun 01:15:36 AM -23.7232 148.4334 122° Southeast 255 293 11,100 1,541 Climbing Aus ATC (RADAR)
Sun 01:16:51 AM -23.7732 148.5180 123° Southeast 277 319 12,500 1,067 Climbing Aus ATC (RADAR)
Sun 01:17:06 AM -23.7840 148.5366 122° Southeast 284 327 12,700 840 Climbing Aus ATC (RADAR)
Sun 01:17:41 AM -23.8108 148.5804 124° Southeast 296 341 13,200 758 Climbing Aus ATC (RADAR)
Sun 01:18:41 AM -23.8587 148.6606 123° Southeast 318 366 13,900 780 Climbing Aus ATC (RADAR)
Sun 01:19:21 AM -23.8913 148.7154 123° Southeast 323 372 14,500 720 Climbing Aus ATC (RADAR)
Sun 01:20:21 AM -23.9413 148.8001 123° Southeast 331 381 15,100 550 Climbing Aus ATC (RADAR)
Sun 01:21:21 AM -23.9928 148.8869 123° Southeast 340 391 15,600 480 Climbing Aus ATC (RADAR)
Sun 01:22:01 AM -24.0275 148.9461 123° Southeast 345 397 15,900 436 Climbing Aus ATC (RADAR)
Sun 01:22:16 AM -24.0411 148.9685 124° Southeast 350 403 16,000 480 Climbing Aus ATC (RADAR)
Sun 01:22:51 AM -24.0721 149.0211 123° Southeast 352 405 16,300 467 Climbing Aus ATC (RADAR)
Sun 01:23:46 AM -24.1217 149.1052 123° Southeast 359 413 16,700 400 Climbing Aus ATC (RADAR)
Sun 01:24:21 AM -24.1534 149.1595 123° Southeast 362 417 16,900 424 Climbing Aus ATC (RADAR)
Sun 01:25:25 AM -24.2131 149.2613 123° Southeast 367 422 17,400 421 Climbing Aus ATC (RADAR)
Sun 01:26:15 AM -24.2594 149.3399 123° Southeast 368 423 17,700 400 Climbing Aus ATC (RADAR)
Sun 01:27:10 AM -24.3107 149.4269 123° Southeast 369 425 18,100 400 Climbing Aus ATC (RADAR)
Sun 01:27:45 AM -24.3430 149.4828 122° Southeast 370 426 18,300 400 Climbing Aus ATC (RADAR)
Sun 01:28:40 AM -24.3943 149.5699 123° Southeast 368 423 18,700 1,000 Climbing Aus ATC (RADAR)
Sun 01:29:15 AM -24.4255 149.6236 123° Southeast 359 413 19,800 2,084 Climbing Aus ATC (RADAR)
Sun 01:30:15 AM -24.4707 149.7017 122° Southeast 298 343 22,000 1,740 Climbing Aus ATC (RADAR)
Sun 01:30:55 AM -24.4994 149.7508 123° Southeast 289 333 22,700 514 Climbing Aus ATC (RADAR)
Sun 01:32:00 AM -24.5475 149.8331 123° Southeast 301 346 22,900 150 Climbing Aus ATC (RADAR)
Sun 01:32:15 AM -24.5593 149.8538 122° Southeast 308 354 22,900  Level Aus ATC (RADAR)
Sun 01:32:50 AM -24.5884 149.9041 123° Southeast 329 379 22,900  Level Aus ATC (RADAR)
Sun 01:34:14 AM -24.6632 150.0334 122° Southeast 356 410 22,900  Level Aus ATC (RADAR)
Sun 01:35:14 AM -24.7181 150.1289 122° Southeast 368 423 22,900  Level Aus ATC (RADAR)
Sun 01:35:34 AM -24.7364 150.1612 122° Southeast 370 426 22,900  Level Aus ATC (RADAR)
Sun 01:36:44 AM -24.8020 150.2738 123° Southeast 373 429 22,900  Level Aus ATC (RADAR)
Sun 01:37:29 AM -24.8447 150.3481 122° Southeast 383 441 22,900  Level Aus ATC (RADAR)
Sun 01:37:44 AM -24.8585 150.3724 122° Southeast 377 434 22,900  Level Aus ATC (RADAR)
Sun 01:38:19 AM -24.8915 150.4302 122° Southeast 378 435 22,900  Level Aus ATC (RADAR)
Sun 01:39:09 AM -24.9381 150.5121 122° Southeast 375 432 22,900  Level Aus ATC (RADAR)
Sun 01:39:44 AM -24.9710 150.5690 123° Southeast 373 429 22,900  Level Aus ATC (RADAR)
Sun 01:40:59 AM -25.0412 150.6925 122° Southeast 374 430 22,900  Level Aus ATC (RADAR)
Sun 01:42:04 AM -25.1018 150.7997 122° Southeast 375 432 22,900  Level Aus ATC (RADAR)
Sun 01:42:19 AM -25.1159 150.8250 121° Southeast 378 435 22,900  Level Aus ATC (RADAR)
Sun 01:42:54 AM -25.1486 150.8818 122° Southeast 374 430 22,900  Level Aus ATC (RADAR)
Sun 01:43:58 AM -25.2095 150.9892 122° Southeast 378 435 22,900  Level Aus ATC (RADAR)
Sun 01:44:34 AM -25.2422 151.0470 122° Southeast 378 435 22,900  Level Aus ATC (RADAR)
Sun 01:45:38 AM -25.3036 151.1537 122° Southeast 378 435 22,900 61 Level Aus ATC (RADAR)
Sun 01:46:13 AM -25.3358 151.2117 122° Southeast 376 433 23,000 60 Climbing Aus ATC (RADAR)
Sun 01:47:18 AM -25.3969 151.3200 122° Southeast 380 437 23,000  Level Aus ATC (RADAR)
Sun 01:47:38 AM -25.4156 151.3539 121° Southeast 381 438 23,000  Level Aus ATC (RADAR)
Sun 01:48:13 AM -25.4488 151.4114 123° Southeast 379 436 23,000  Level Aus ATC (RADAR)
Sun 01:49:13 AM -25.5008 151.5044 122° Southeast 346 398 23,000  Level Aus ATC (RADAR)
Sun 01:49:53 AM -25.5332 151.5617 122° Southeast 327 376 23,000  Level Aus ATC (RADAR)
Sun 01:50:53 AM -25.5786 151.6448 121° Southeast 312 359 23,000 -189 Level Aus ATC (RADAR)
Sun 01:51:28 AM -25.6075 151.6899 125° Southeast 309 356 22,700 -568 Descending Aus ATC (RADAR)
Sun 01:52:28 AM -25.6734 151.7457 143° Southeast 296 341 22,100 -640 Descending Aus ATC (RADAR)
Sun 01:52:43 AM -25.6896 151.7601 141° Southeast 295 339 21,900 -600 Descending Aus ATC (RADAR)
Sun 01:53:18 AM -25.7264 151.7931 141° Southeast 292 336 21,600 -568 Descending Aus ATC (RADAR)
Sun 01:54:18 AM -25.7883 151.8512 140° Southeast 289 333 21,000 -632 Descending Aus ATC (RADAR)
Sun 01:54:53 AM -25.8235 151.8885 136° Southeast 296 341 20,600 -632 Descending Aus ATC (RADAR)
Sun 01:55:53 AM -25.8874 151.9469 141° Southeast 295 339 20,000 -574 Descending Aus ATC (RADAR)
Sun 01:56:27 AM -25.9240 151.9807 140° Southeast 291 335 19,700 -577 Descending Aus ATC (RADAR)
Sun 01:57:37 AM -25.9953 152.0479 140° Southeast 286 329 19,000 -635 Descending Aus ATC (RADAR)
Sun 01:57:52 AM -26.0100 152.0626 138° Southeast 283 326 18,800 -600 Descending Aus ATC (RADAR)
Sun 01:58:27 AM -26.0442 152.0946 140° Southeast 276 318 18,500 -568 Descending Aus ATC (RADAR)
Sun 01:59:27 AM -26.1027 152.1496 140° Southeast 273 314 17,900 -600 Descending Aus ATC (RADAR)
Sun 01:59:57 AM -26.1318 152.1766 140° Southeast 271 312 17,600 -545 Descending Aus ATC (RADAR)
Sun 02:01:06 AM -26.1945 152.2358 140° Southeast 270 311 17,000 -371 Descending Aus ATC (RADAR)
Sun 02:01:34 AM -26.2223 152.2616 140° Southeast 260 299 17,000  Level Aus ATC (RADAR)
Sun 02:02:49 AM -26.2908 152.3284 139° Southeast 260 299 17,000  Level Aus ATC (RADAR)
Sun 02:03:37 AM -26.3376 152.3722 140° Southeast 262 302 17,000  Level Aus ATC (RADAR)
Sun 02:04:42 AM -26.3969 152.4278 140° Southeast 257 296 17,000  Level Aus ATC (RADAR)
Sun 02:05:20 AM -26.4285 152.4579 139° Southeast 255 293 17,000  Level Aus ATC (RADAR)
Sun 02:06:11 AM -26.4776 152.5055 139° Southeast 253 291 17,000  Level Aus ATC (RADAR)
Sun 02:06:46 AM -26.5095 152.5353 140° Southeast 253 291 17,000  Level Aus ATC (RADAR)
Sun 02:07:46 AM -26.5640 152.5875 139° Southeast 255 293 17,000  Level Aus ATC (RADAR)
Sun 02:08:06 AM -26.5823 152.6052 139° Southeast 257 296 17,000 -327 Level Aus ATC (RADAR)
Sun 02:08:41 AM -26.6145 152.6360 139° Southeast 259 298 16,700 -1,067 Descending Aus ATC (RADAR)
Sun 02:09:36 AM -26.6655 152.6838 140° Southeast 253 291 15,400 -1,400 Descending Aus ATC (RADAR)
Sun 02:10:11 AM -26.6958 152.7127 140° Southeast 242 278 14,600 -1,400 Descending Aus ATC (RADAR)
Sun 02:11:06 AM -26.7429 152.7610 137° Southeast 252 290 13,300 -1,333 Descending Aus ATC (RADAR)
Sun 02:11:41 AM -26.7792 152.7825 152° Southeast 249 287 12,600 -1,473 Descending Aus ATC (RADAR)
Sun 02:12:56 AM -26.8675 152.8317 154° Southeast 286 329 10,600 -1,600 Descending Aus ATC (RADAR)
Sun 02:13:11 AM -26.8852 152.8422 152° Southeast 286 329 10,200 -1,440 Descending Aus ATC (RADAR)
Sun 02:13:46 AM -26.9252 152.8660 152° Southeast 274 315 9,400 -1,429 Descending Aus ATC (RADAR)
Sun 02:14:56 AM -26.9996 152.9148 150° Southeast 259 298 7,700 -1,431 Descending Aus ATC (RADAR)
Sun 02:15:35 AM -27.0412 152.9397 152° Southeast 249 287 6,800 -1,416 Descending Aus ATC (RADAR)
Sun 02:16:25 AM -27.0919 152.9669 155° Southeast 240 276 5,600 -1,326 Descending Aus ATC (RADAR)
Sun 02:17:01 AM -27.1280 152.9851 156° South 239 275 4,900 -1,200 Descending Aus ATC (RADAR)
Sun 02:18:00 AM -27.1861 153.0163 154° Southeast 227 261 3,700 -1,139 Descending Aus ATC (RADAR)
Sun 02:18:20 AM -27.2059 153.0269 155° Southeast 230 265 3,400 -1,091 Descending Aus ATC (RADAR)
Sun 02:18:55 AM -27.2395 153.0450 154° Southeast 228 262 2,700 -1,133 Descending Aus ATC (RADAR)
Sun 02:19:50 AM -27.2884 153.0716 154° Southeast 202 232 1,700 -1,011 Descending Aus ATC (RADAR)
Sun 02:20:30 AM -27.3138 153.0916 145° Southeast 163 188 1,100 -884 Descending Aus ATC (RADAR)
Sun 02:21:25 AM -27.3421 153.1132 146° Southeast 129 148 300 -873 Descending Aus ATC (RADAR)
Sun 02:23:00 AM -27.3841 153.1176 227° Southwest  Level FlightAware Approximate

Login

Don't have an account? Register now (free) for customized features, flight alerts, and more!